Time;durP1;ratioP1;P1;durP2;ratioP2;P2;SDS_P1;SDS_P2;PMS_P1;PMS_P2;Temp;Humidity;BMP_temperature;BMP_pressure;BME280_temperature;BME280_humidity;BME280_pressure;Samples;Min_cycle;Max_cycle;Signal;HPM_P1;HPM_P2
2023/07/03 00:01:08;;;;;;;41.28;11.13;;;19.40;99.90;;;19.82;80.74;100800.72;5048436;28;20075;-75
2023/07/03 00:03:38;;;;;;;52.40;11.32;;;19.30;99.90;;;19.85;80.92;100805.94;5052513;28;20140;-78
2023/07/03 00:06:07;;;;;;;46.58;11.55;;;19.30;99.90;;;19.78;81.04;100798.16;5052263;28;20128;-78
2023/07/03 00:08:37;;;;;;;44.28;11.70;;;19.30;99.90;;;19.84;80.96;100794.31;5052565;28;20080;-79
2023/07/03 00:11:06;;;;;;;46.80;10.68;;;19.30;99.90;;;19.80;81.12;100800.78;5052501;28;20263;-78
2023/07/03 00:13:35;;;;;;;44.97;11.50;;;19.30;99.90;;;19.79;81.33;100793.66;5051184;28;20068;-78
2023/07/03 00:16:04;;;;;;;42.10;10.00;;;19.30;99.90;;;19.77;81.58;100795.53;5052483;28;20052;-79
2023/07/03 00:18:34;;;;;;;48.47;10.88;;;19.30;99.90;;;19.79;81.42;100797.22;5067802;28;20049;-78
2023/07/03 00:21:02;;;;;;;47.60;11.23;;;19.30;99.90;;;19.73;81.74;100801.97;5048205;28;20068;-77
2023/07/03 00:23:30;;;;;;;46.38;11.82;;;19.30;99.90;;;19.78;81.60;100790.09;5052421;28;20040;-78
2023/07/03 00:26:00;;;;;;;50.85;10.70;;;19.30;99.90;;;19.74;81.44;100793.00;5052039;28;20077;-78
2023/07/03 00:28:28;;;;;;;46.35;10.70;;;19.30;99.90;;;19.75;81.27;100792.03;5052403;28;20072;-79
2023/07/03 00:30:57;;;;;;;41.20;9.70;;;19.30;99.90;;;19.77;80.94;100784.81;5067705;28;20049;-78
2023/07/03 00:33:26;;;;;;;40.58;10.80;;;19.30;99.90;;;19.84;80.78;100794.31;5052325;28;20064;-78
2023/07/03 00:35:54;;;;;;;42.10;10.35;;;19.40;99.90;;;19.92;80.22;100789.50;5051913;28;20044;-78
2023/07/03 00:38:22;;;;;;;43.33;10.43;;;19.40;99.90;;;19.83;80.48;100795.28;5050012;28;20045;-79
2023/07/03 00:40:51;;;;;;;41.80;10.23;;;19.40;99.90;;;19.85;80.22;100804.13;5052246;28;20049;-78
2023/07/03 00:43:21;;;;;;;43.45;9.95;;;19.40;99.90;;;19.90;80.21;100804.78;5050961;28;20078;-77
2023/07/03 00:45:49;;;;;;;;;;;19.40;99.90;;;19.96;79.82;100798.28;5051224;28;20401;-79
2023/07/03 00:48:19;;;;;;;47.38;10.45;;;19.50;99.90;;;20.01;79.91;100799.84;5055553;28;20301;-79
2023/07/03 00:50:47;;;;;;;37.20;10.27;;;19.50;99.90;;;20.08;79.83;100801.31;5052324;28;20053;-79
2023/07/03 00:53:15;;;;;;;43.10;11.05;;;19.60;99.90;;;20.08;79.24;100795.06;5055724;28;20505;-78
2023/07/03 00:55:44;;;;;;;38.28;10.05;;;19.60;99.90;;;20.11;78.47;100793.09;5054386;28;20098;-79
2023/07/03 00:58:12;;;;;;;38.83;9.55;;;19.60;99.90;;;20.06;77.67;100789.75;5055327;28;20045;-78
2023/07/03 01:00:49;;;;;;;29.33;9.45;;;19.60;99.90;;;19.96;76.86;100771.44;5054314;28;20095;-78
2023/07/03 01:03:26;;;;;;;34.60;9.05;;;19.60;99.90;;;20.09;76.05;100792.31;5050404;28;20053;-79
2023/07/03 01:05:56;;;;;;;38.88;10.07;;;19.60;99.90;;;20.10;75.65;100786.00;5052967;28;20498;-79
2023/07/03 01:08:26;;;;;;;43.03;10.43;;;19.60;99.90;;;20.12;75.21;100789.50;5053994;28;20049;-79
2023/07/03 01:10:56;;;;;;;30.80;9.85;;;19.70;99.90;;;20.07;74.83;100788.84;5055756;28;20087;-78
2023/07/03 01:13:28;;;;;;;31.77;8.73;;;19.60;99.90;;;20.12;74.15;100788.63;5055352;28;20090;-78
2023/07/03 01:15:58;;;;;;;30.08;8.60;;;19.70;99.90;;;19.97;73.99;100771.38;5067576;28;20445;-76
2023/07/03 01:18:28;;;;;;;30.60;8.73;;;19.60;99.90;;;20.11;73.38;100784.19;5055185;28;20052;-78
2023/07/03 01:21:04;;;;;;;30.88;9.45;;;19.70;99.90;;;20.14;73.15;100778.69;5055241;28;20041;-75
2023/07/03 01:23:41;;;;;;;32.90;8.32;;;19.70;99.90;;;20.20;72.49;100794.56;5055000;28;20450;-78
2023/07/03 01:26:12;;;;;;;28.65;8.65;;;19.70;99.90;;;20.26;71.96;100795.16;5042250;28;20049;-78
2023/07/03 01:28:41;;;;;;;29.52;8.23;;;19.80;99.90;;;20.24;71.41;100799.72;5055161;28;20371;-78
2023/07/03 01:31:10;;;;;;;27.20;8.73;;;19.80;99.90;;;20.26;70.77;100797.84;5055056;28;20465;-78
2023/07/03 01:33:44;;;;;;;29.27;8.00;;;19.80;99.90;;;20.18;69.68;100794.63;5052700;28;20046;-79
2023/07/03 01:36:13;;;;;;;25.45;7.47;;;19.80;99.90;;;20.27;68.56;100791.53;5055045;28;20462;-76
2023/07/03 01:38:42;;;;;;;28.50;8.25;;;19.80;99.90;;;20.24;66.94;100788.97;5054871;28;20102;-79
2023/07/03 01:41:14;;;;;;;22.83;7.68;;;19.80;99.90;;;20.10;65.55;100790.50;5051049;28;20110;-79
2023/07/03 01:43:45;;;;;;;23.42;7.95;;;19.70;99.90;;;20.07;63.16;100790.66;5054924;28;20049;-78
2023/07/03 01:46:15;;;;;;;15.80;6.22;;;19.60;99.90;;;19.88;58.70;100787.88;5054904;28;20045;-76
2023/07/03 01:48:44;;;;;;;15.88;5.53;;;19.60;99.90;;;19.92;57.85;100789.50;5054545;28;20399;-75
2023/07/03 01:51:22;;;;;;;16.63;6.45;;;19.50;99.90;;;19.86;56.92;100784.38;5052815;28;20045;-78
2023/07/03 01:54:09;;;;;;;17.48;6.82;;;19.40;99.90;;;19.89;56.57;100794.13;5051200;28;20128;-78
2023/07/03 01:56:43;;;;;;;16.23;7.15;;;19.50;99.90;;;19.88;55.96;100784.34;5052398;28;20049;-79
2023/07/03 01:59:13;;;;;;;17.45;6.63;;;19.40;99.90;;;19.64;55.63;100775.53;5049650;28;20049;-78
2023/07/03 02:01:49;;;;;;;21.10;7.45;;;19.30;99.90;;;19.69;56.43;100782.44;5053277;28;20103;-78
2023/07/03 02:04:27;;;;;;;16.95;6.85;;;19.30;99.90;;;19.61;55.77;100776.53;5054205;28;20584;-79
2023/07/03 02:06:57;;;;;;;15.98;6.82;;;19.30;99.90;;;19.56;55.69;100775.88;5054268;28;20131;-77
2023/07/03 02:09:26;;;;;;;18.83;6.40;;;19.20;99.90;;;19.47;56.78;100775.38;5054377;28;20060;-78
2023/07/03 02:11:59;;;;;;;14.38;5.50;;;19.10;99.90;;;19.53;56.57;100775.13;5061591;28;20076;-78
2023/07/03 02:14:29;;;;;;;14.98;5.30;;;19.10;99.90;;;19.36;56.08;100774.94;5068632;28;20049;-79
2023/07/03 02:16:57;;;;;;;17.05;5.53;;;19.10;99.90;;;19.34;56.73;100774.13;5052932;28;20494;-78
2023/07/03 02:19:28;;;;;;;12.32;4.70;;;19.00;99.90;;;19.42;56.00;100766.66;5052661;28;20045;-75
2023/07/03 02:21:57;;;;;;;17.83;5.30;;;19.00;99.90;;;19.37;55.65;100772.22;5052913;28;20124;-78
2023/07/03 02:24:25;;;;;;;10.02;4.88;;;19.00;99.90;;;19.33;53.37;100775.97;5049130;28;20049;-78
2023/07/03 02:26:54;;;;;;;11.20;5.05;;;19.00;99.90;;;19.39;53.39;100775.72;5052769;28;20095;-78
2023/07/03 02:29:23;;;;;;;12.82;4.50;;;19.10;99.90;;;19.40;53.70;100789.97;5053896;28;20048;-77
2023/07/03 02:31:52;;;;;;;8.85;4.25;;;19.00;99.90;;;19.45;54.24;100788.00;5054224;28;20052;-75
2023/07/03 02:34:21;;;;;;;9.80;4.93;;;19.10;99.90;;;19.42;54.39;100778.25;5051246;28;20526;-79
2023/07/03 02:36:50;;;;;;;10.40;4.57;;;19.10;99.90;;;19.24;54.13;100776.28;5053833;28;20053;-78
2023/07/03 02:39:18;;;;;;;12.55;4.65;;;18.90;99.90;;;19.30;55.17;100772.53;5053828;28;20605;-78
2023/07/03 02:41:47;;;;;;;15.43;5.18;;;18.90;99.90;;;19.11;54.44;100784.91;5053719;28;20049;-79
2023/07/03 02:44:16;;;;;;;9.20;4.55;;;18.80;99.90;;;19.25;54.51;100778.06;5052389;28;20171;-79
2023/07/03 02:46:47;;;;;;;13.43;4.50;;;18.80;99.90;;;19.19;54.56;100778.31;5053588;28;20049;-78
2023/07/03 02:49:16;;;;;;;13.20;4.88;;;18.90;99.90;;;19.14;54.76;100777.63;5052280;28;20072;-78
2023/07/03 02:51:45;;;;;;;12.82;4.28;;;18.80;99.90;;;18.96;54.80;100767.66;5050386;28;20148;-78
2023/07/03 02:54:13;;;;;;;9.82;4.00;;;18.70;99.90;;;19.01;55.18;100776.38;5068769;28;20049;-75
2023/07/03 02:56:42;;;;;;;14.75;4.75;;;18.60;99.90;;;18.75;55.46;100763.16;5051934;28;20041;-77
2023/07/03 02:59:11;;;;;;;17.73;4.95;;;18.50;99.90;;;18.69;56.35;100752.66;5051218;28;20037;-78
2023/07/03 03:01:40;;;;;;;10.45;4.63;;;18.40;99.90;;;18.57;57.80;100753.13;5068658;28;20052;-78
2023/07/03 03:04:10;;;;;;;15.70;5.00;;;18.30;99.90;;;18.63;58.18;100768.97;5052111;28;20053;-79
2023/07/03 03:06:40;;;;;;;13.93;4.38;;;18.20;99.90;;;18.70;58.46;100768.69;5049460;28;20124;-76
2023/07/03 03:09:09;;;;;;;10.03;4.70;;;18.30;99.90;;;18.66;58.15;100761.69;5051544;28;20059;-78
2023/07/03 03:11:38;;;;;;;12.68;5.13;;;18.30;99.90;;;18.69;58.09;100764.25;5051610;28;20056;-78
2023/07/03 03:14:07;;;;;;;15.93;4.60;;;18.30;99.90;;;18.60;58.41;100774.47;5051614;28;20059;-78
2023/07/03 03:16:36;;;;;;;10.95;4.55;;;18.20;99.90;;;18.55;58.39;100766.59;5050573;28;20084;-77
2023/07/03 03:19:04;;;;;;;15.05;4.95;;;18.20;99.90;;;18.61;58.74;100771.72;5053059;28;20087;-78
2023/07/03 03:21:34;;;;;;;12.80;5.00;;;18.20;99.90;;;18.51;58.57;100759.59;5051696;28;20064;-78
2023/07/03 03:24:03;;;;;;;14.02;5.18;;;18.20;99.90;;;18.47;58.91;100763.34;5053001;28;20049;-78
2023/07/03 03:26:32;;;;;;;11.23;4.93;;;18.10;99.90;;;18.56;58.39;100767.47;5052914;28;20102;-77
2023/07/03 03:29:01;;;;;;;12.13;4.60;;;18.20;99.90;;;18.75;58.99;100777.44;5049310;28;20474;-78
2023/07/03 03:31:30;;;;;;;11.05;4.75;;;18.30;99.90;;;18.49;58.86;100769.50;5051569;28;20055;-78
2023/07/03 03:34:03;;;;;;;10.95;4.53;;;18.20;99.90;;;18.57;58.21;100770.09;5050233;28;20057;-78
2023/07/03 03:36:33;;;;;;;13.45;4.82;;;18.20;99.90;;;18.50;58.62;100773.06;5067961;28;20049;-75
2023/07/03 03:39:03;;;;;;;13.65;5.35;;;18.10;99.90;;;18.57;58.36;100774.56;5051643;28;20045;-78
2023/07/03 03:41:32;;;;;;;13.77;5.13;;;18.20;99.90;;;18.77;58.87;100777.34;5051232;28;20087;-78
2023/07/03 03:44:00;;;;;;;10.73;4.72;;;18.30;99.90;;;18.60;58.53;100769.97;5064944;28;20143;-78
2023/07/03 03:46:29;;;;;;;9.77;4.32;;;18.30;99.90;;;18.59;58.82;100768.22;5047822;28;20048;-78
2023/07/03 03:48:57;;;;;;;10.32;4.30;;;18.20;99.90;;;18.67;58.39;100763.44;5052506;28;20486;-78
2023/07/03 03:51:27;;;;;;;14.13;5.20;;;18.30;99.90;;;18.36;58.36;100765.53;5049207;28;20048;-78
2023/07/03 03:53:56;;;;;;;11.55;4.80;;;18.00;99.90;;;18.30;58.64;100759.50;5068148;28;20045;-78
2023/07/03 03:56:25;;;;;;;12.05;4.97;;;17.90;99.90;;;18.38;58.12;100768.13;5052617;28;20072;-78
2023/07/03 03:58:54;;;;;;;14.93;4.77;;;17.90;99.90;;;18.46;58.56;100766.09;5052730;28;20049;-78
2023/07/03 04:01:22;;;;;;;16.35;4.97;;;18.00;99.90;;;18.52;58.61;100764.06;5052526;28;20079;-79
2023/07/03 04:03:51;;;;;;;11.35;4.45;;;18.20;99.90;;;18.52;58.68;100766.72;5051327;28;20051;-78
2023/07/03 04:06:20;;;;;;;11.45;4.75;;;18.20;99.90;;;18.34;59.41;100767.38;5052327;28;20127;-78
2023/07/03 04:08:48;;;;;;;13.60;5.13;;;18.00;99.90;;;18.40;59.63;100761.81;5048453;28;20088;-76
2023/07/03 04:11:16;;;;;;;17.45;5.55;;;18.00;99.90;;;18.36;59.79;100764.66;5052497;28;20071;-77
2023/07/03 04:13:46;;;;;;;15.10;5.07;;;18.00;99.90;;;18.38;60.11;100769.03;5052533;28;20139;-74
2023/07/03 04:16:14;;;;;;;11.93;4.90;;;18.00;99.90;;;18.59;60.72;100778.06;5052347;28;20045;-78
2023/07/03 04:18:43;;;;;;;17.27;5.32;;;18.10;99.90;;;18.65;59.95;100775.16;5052413;28;20041;-78
2023/07/03 04:21:11;;;;;;;16.88;4.70;;;18.30;99.90;;;18.62;60.13;100780.66;5055420;28;20119;-78
2023/07/03 04:23:40;;;;;;;14.00;5.03;;;18.20;99.90;;;18.55;59.48;100780.00;5056091;28;20044;-78
2023/07/03 04:26:08;;;;;;;14.88;4.68;;;18.20;99.90;;;18.47;59.41;100783.88;5056604;28;20052;-78
2023/07/03 04:28:37;;;;;;;16.90;5.45;;;18.10;99.90;;;18.61;59.51;100778.88;5056245;28;20451;-78
2023/07/03 04:31:06;;;;;;;15.45;5.07;;;18.20;99.90;;;18.66;59.85;100785.81;5056192;28;20456;-78
2023/07/03 04:33:35;;;;;;;14.10;4.60;;;18.30;99.90;;;18.75;60.11;100789.94;5052199;28;20486;-77
2023/07/03 04:36:04;;;;;;;15.73;5.25;;;18.30;99.90;;;18.72;60.06;100784.69;5054800;28;20532;-79
2023/07/03 04:38:32;;;;;;;19.55;5.28;;;18.30;99.90;;;18.81;60.27;100777.16;5056349;28;20052;-78
2023/07/03 04:41:00;;;;;;;13.45;5.22;;;18.50;99.90;;;18.64;60.54;100776.94;5055656;28;20095;-79
2023/07/03 04:43:29;;;;;;;13.80;5.22;;;18.30;99.90;;;18.70;60.91;100784.75;5069682;28;20056;-78
2023/07/03 04:46:03;;;;;;;13.50;5.35;;;18.30;99.90;;;18.77;60.33;100780.91;5055680;28;20103;-78
2023/07/03 04:48:33;;;;;;;11.93;4.47;;;18.30;99.90;;;18.85;60.29;100789.50;5055602;28;20481;-79
2023/07/03 04:51:03;;;;;;;14.48;5.00;;;18.50;99.90;;;18.78;60.86;100782.66;5055886;28;20060;-78
2023/07/03 04:53:40;;;;;;;18.42;5.57;;;18.40;99.90;;;18.81;60.34;100779.00;5055888;28;20072;-78
2023/07/03 04:56:11;;;;;;;16.42;5.45;;;18.40;99.90;;;18.67;60.23;100784.00;5053332;28;20049;-75
2023/07/03 04:58:40;;;;;;;23.02;6.82;;;18.30;99.90;;;18.79;61.34;100799.63;5056041;28;20048;-79
2023/07/03 05:01:11;;;;;;;16.30;5.53;;;18.40;99.90;;;18.81;61.08;100795.06;5055561;28;20083;-76
2023/07/03 05:03:41;;;;;;;19.00;5.55;;;18.40;99.90;;;18.78;61.90;100796.06;5051774;28;20045;-78
2023/07/03 05:06:10;;;;;;;13.30;5.53;;;18.40;99.90;;;18.83;61.67;100798.56;5051856;28;20449;-78
2023/07/03 05:08:39;;;;;;;13.68;5.45;;;18.40;99.90;;;18.89;61.43;100804.53;5055274;28;20292;-78
2023/07/03 05:11:07;;;;;;;18.88;5.40;;;18.50;99.90;;;19.00;61.68;100806.81;5055230;28;20116;-78
2023/07/03 05:13:35;;;;;;;15.25;5.70;;;18.60;99.90;;;19.01;61.09;100799.66;5055146;28;20064;-78
2023/07/03 05:16:04;;;;;;;14.95;5.28;;;18.60;99.90;;;19.05;60.51;100798.59;5055361;28;20053;-78
2023/07/03 05:18:33;;;;;;;17.15;5.47;;;18.70;99.90;;;19.09;60.16;100795.69;5055589;28;20056;-79
2023/07/03 05:21:03;;;;;;;16.25;5.88;;;18.70;99.90;;;19.03;60.24;100812.03;5054889;28;20545;-78
2023/07/03 05:23:31;;;;;;;17.73;5.85;;;18.70;99.90;;;19.05;60.26;100801.28;5054963;28;20045;-78
2023/07/03 05:25:59;;;;;;;13.30;5.38;;;18.70;99.90;;;19.14;60.23;100814.31;5055177;28;20081;-76
2023/07/03 05:28:28;;;;;;;16.60;5.40;;;18.70;99.90;;;19.21;59.43;100816.66;5051229;28;20573;-78
2023/07/03 05:30:57;;;;;;;13.20;5.18;;;18.80;99.90;;;19.19;59.95;100812.28;5054772;28;20037;-79
2023/07/03 05:33:27;;;;;;;13.68;5.60;;;18.80;99.90;;;19.25;59.62;100820.09;5055062;28;20132;-79
2023/07/03 05:35:59;;;;;;;16.05;4.85;;;18.80;99.90;;;19.25;59.02;100814.72;5055027;28;20044;-80
2023/07/03 05:38:29;;;;;;;15.35;4.97;;;18.90;99.90;;;19.29;58.87;100811.88;5055054;28;20106;-80
2023/07/03 05:40:57;;;;;;;17.52;5.57;;;18.90;99.90;;;19.41;58.76;100811.41;5054511;28;20409;-80
2023/07/03 05:43:26;;;;;;;15.35;4.90;;;19.00;99.90;;;19.41;58.85;100805.16;5054618;28;20053;-78
2023/07/03 05:45:55;;;;;;;13.48;4.68;;;19.00;99.90;;;19.38;58.46;100802.59;5050534;28;20148;-83
2023/07/03 05:48:24;;;;;;;18.52;5.88;;;19.10;99.90;;;19.00;59.87;100787.16;5051139;28;20075;-83
2023/07/03 05:50:52;;;;;;;14.05;5.25;;;18.90;99.90;;;19.11;59.45;100809.03;5054594;28;20053;-79
2023/07/03 05:53:20;;;;;;;14.88;4.78;;;18.70;99.90;;;19.18;58.90;100811.41;5054343;28;20098;-80
2023/07/03 05:55:57;;;;;;;16.45;4.82;;;18.80;99.90;;;19.31;59.65;100826.09;5053289;28;20172;-75
2023/07/03 05:58:27;;;;;;;18.00;5.43;;;18.90;99.90;;;19.39;59.15;100810.59;5054152;28;20055;-76
2023/07/03 06:00:55;;;;;;;15.15;5.43;;;19.00;99.90;;;19.26;60.25;100821.84;5054037;28;20041;-75
2023/07/03 06:03:24;;;;;;;16.83;4.80;;;18.90;99.90;;;19.45;60.10;100825.56;5033174;28;20084;-81
2023/07/03 06:05:53;;;;;;;15.35;5.57;;;19.00;99.90;;;19.50;59.07;100815.50;5046593;28;20036;-84
2023/07/03 06:08:22;;;;;;;14.25;4.82;;;19.10;99.90;;;19.44;58.75;100813.94;5054064;28;20049;-79
2023/07/03 06:10:52;;;;;;;17.85;6.00;;;19.10;99.90;;;19.48;58.52;100817.38;5054053;28;20095;-82
2023/07/03 06:13:22;;;;;;;11.70;4.82;;;19.10;99.90;;;19.57;58.45;100820.53;5054162;28;20045;-81
2023/07/03 06:15:50;;;;;;;16.13;4.73;;;19.20;99.90;;;19.67;58.74;100823.69;5053965;28;20199;-80
2023/07/03 06:18:19;;;;;;;14.13;5.25;;;19.30;99.90;;;19.85;58.77;100830.97;5053893;28;20474;-76
2023/07/03 06:20:47;;;;;;;15.07;5.40;;;19.40;99.90;;;19.86;58.35;100821.97;5053822;28;20037;-80
2023/07/03 06:23:16;;;;;;;14.05;5.00;;;19.40;99.90;;;19.88;57.74;100821.94;5053936;28;20076;-79
2023/07/03 06:25:44;;;;;;;14.82;5.28;;;19.50;99.90;;;20.00;57.75;100822.25;5049827;28;20080;-75
2023/07/03 06:28:13;;;;;;;16.38;5.15;;;19.60;99.90;;;20.13;57.76;100822.59;5050073;28;20080;-81
2023/07/03 06:30:50;;;;;;;14.50;5.00;;;19.70;99.90;;;20.05;58.81;100822.94;5054055;28;20048;-83
2023/07/03 06:33:18;;;;;;;17.75;5.30;;;19.70;99.90;;;20.23;58.40;100822.16;5053687;28;20045;-83
2023/07/03 06:35:51;;;;;;;13.50;5.85;;;19.80;99.90;;;20.36;58.40;100828.69;5053551;28;20056;-82
2023/07/03 06:38:21;;;;;;;19.05;6.10;;;19.90;99.90;;;20.51;58.01;100830.72;5053641;28;20099;-81
2023/07/03 06:40:57;;;;;;;18.80;6.18;;;20.10;99.90;;;20.64;57.25;100826.53;5050365;28;20051;-81
2023/07/03 06:43:26;;;;;;;16.02;5.93;;;20.20;99.90;;;20.58;56.38;100836.66;5053047;28;20049;-83
2023/07/03 06:45:55;;;;;;;17.77;5.30;;;20.20;99.90;;;20.75;56.11;100825.16;5053339;28;20041;-81
2023/07/03 06:48:26;;;;;;;21.63;5.93;;;20.30;99.90;;;20.83;54.77;100833.75;5053493;28;20079;-88
2023/07/03 06:51:03;;;;;;;13.48;4.90;;;20.40;99.90;;;20.79;54.39;100840.19;5052416;28;20049;-89
2023/07/03 06:53:31;;;;;;;15.77;4.70;;;20.40;99.90;;;20.70;54.78;100817.28;5050711;28;20041;-86
2023/07/03 06:56:01;;;;;;;12.82;5.25;;;20.40;99.90;;;20.92;54.31;100839.56;5053193;28;20045;-76
2023/07/03 06:58:31;;;;;;;14.27;4.90;;;20.50;99.90;;;21.05;54.60;100840.75;5053150;28;20048;-77
2023/07/03 07:01:07;;;;;;;16.30;5.25;;;20.60;99.90;;;21.09;54.02;100846.84;5053147;28;20044;-76
2023/07/03 07:03:35;;;;;;;13.48;5.20;;;20.70;99.90;;;21.11;53.90;100845.81;5053041;28;20398;-76
2023/07/03 07:06:10;;;;;;;13.38;5.13;;;20.70;99.90;;;21.07;54.56;100851.41;5049207;28;20045;-78
2023/07/03 07:08:39;;;;;;;17.23;4.97;;;20.60;99.90;;;20.88;55.08;100834.38;5053023;28;20052;-73
2023/07/03 07:11:10;;;;;;;10.15;4.45;;;20.50;99.90;;;20.94;54.78;100842.16;5053151;28;20052;-74
2023/07/03 07:13:41;;;;;;;14.68;5.18;;;20.50;99.90;;;21.12;55.88;100854.75;5053429;28;20103;-75
2023/07/03 07:16:16;;;;;;;19.13;6.20;;;20.60;99.90;;;21.29;55.50;100855.69;5053449;28;20041;-72
2023/07/03 07:18:48;;;;;;;13.68;4.30;;;20.80;99.90;;;21.38;53.23;100844.50;5049512;28;20049;-73
2023/07/03 07:21:16;;;;;;;13.40;5.22;;;21.00;99.90;;;21.41;52.99;100857.78;5052639;28;20037;-73
2023/07/03 07:23:50;;;;;;;11.02;5.00;;;21.00;99.90;;;21.49;53.28;100855.59;5052645;28;20403;-73
2023/07/03 07:26:19;;;;;;;10.65;4.65;;;21.10;99.90;;;21.28;53.19;100853.94;5051724;28;20110;-72
2023/07/03 07:28:48;;;;;;;15.57;5.45;;;20.90;99.90;;;21.17;53.44;100858.09;5053249;28;20049;-73
2023/07/03 07:31:23;;;;;;;16.13;5.32;;;20.80;99.90;;;21.32;54.03;100870.81;5052932;28;20048;-72
2023/07/03 07:33:52;;;;;;;16.13;5.90;;;20.90;99.90;;;21.37;53.39;100866.06;5050083;28;20037;-72
2023/07/03 07:36:24;;;;;;;12.98;5.22;;;21.00;99.90;;;21.49;53.47;100862.78;5052841;28;20106;-73
2023/07/03 07:38:53;;;;;;;14.23;5.15;;;21.10;99.90;;;21.24;54.16;100862.25;5052839;28;20494;-73
2023/07/03 07:41:24;;;;;;;12.48;4.72;;;20.90;99.90;;;20.56;54.33;100764.16;5052753;28;20131;-75
2023/07/03 07:43:54;;;;;;;17.50;5.20;;;20.80;99.90;;;20.77;55.82;100859.06;5052412;28;20052;-75
2023/07/03 07:46:26;;;;;;;11.75;4.80;;;20.50;99.90;;;20.76;56.62;100856.47;5049241;28;20752;-80
2023/07/03 07:48:54;;;;;;;13.70;5.45;;;20.40;99.90;;;20.54;57.71;100878.94;5052540;28;20448;-72
2023/07/03 07:51:24;;;;;;;18.77;5.47;;;20.30;99.90;;;20.12;57.97;100839.66;5052691;28;20068;-77
2023/07/03 07:53:52;;;;;;;14.23;5.05;;;20.10;99.90;;;20.12;58.82;100872.75;5052323;28;20045;-74
2023/07/03 07:56:21;;;;;;;12.73;5.38;;;19.80;99.90;;;20.10;59.20;100874.63;5056386;28;20098;-74
2023/07/03 07:58:51;;;;;;;17.25;5.35;;;19.80;99.90;;;20.27;59.99;100877.50;5056475;28;20048;-75
2023/07/03 08:01:21;;;;;;;14.88;5.43;;;19.90;99.90;;;20.18;59.35;100882.34;5056859;28;20115;-76
2023/07/03 08:03:51;;;;;;;16.30;5.15;;;19.90;99.90;;;20.29;60.22;100880.09;5056385;28;20088;-76
2023/07/03 08:06:19;;;;;;;16.17;5.28;;;19.90;99.90;;;20.45;59.95;100875.81;5053407;28;20417;-75
2023/07/03 08:08:48;;;;;;;14.50;5.30;;;20.00;99.90;;;20.39;58.90;100862.63;5056164;28;20460;-74
2023/07/03 08:11:19;;;;;;;15.68;5.05;;;20.10;99.90;;;20.69;58.90;100878.25;5056295;28;20102;-73
2023/07/03 08:13:47;;;;;;;17.65;4.95;;;20.30;99.90;;;19.99;58.20;100753.41;5056297;28;20053;-74
2023/07/03 08:16:17;;;;;;;14.77;5.03;;;20.30;99.90;;;20.23;58.99;100870.50;5056154;28;20049;-74
2023/07/03 08:18:45;;;;;;;16.75;4.57;;;20.00;99.90;;;20.38;58.88;100868.97;5056204;28;20091;-75
2023/07/03 08:21:18;;;;;;;14.57;5.30;;;20.00;99.90;;;20.51;58.56;100881.78;5056206;28;20049;-77
2023/07/03 08:23:47;;;;;;;15.50;4.57;;;20.10;99.90;;;20.63;58.25;100878.53;5052877;28;20049;-73
2023/07/03 08:26:20;;;;;;;14.75;5.22;;;20.30;99.90;;;20.58;56.59;100885.06;5056246;28;20115;-74
2023/07/03 08:28:48;;;;;;;15.98;4.93;;;20.30;99.90;;;20.46;56.67;100882.94;5056081;28;20466;-74
2023/07/03 08:31:17;;;;;;;12.05;4.70;;;20.10;99.90;;;20.25;57.58;100868.63;5055956;28;20067;-78
2023/07/03 08:33:45;;;;;;;14.50;5.47;;;20.00;99.90;;;20.31;57.80;100894.34;5056184;28;20405;-76
2023/07/03 08:36:15;;;;;;;17.08;5.93;;;19.90;99.90;;;20.43;58.64;100894.69;5056269;28;20049;-78
2023/07/03 08:38:47;;;;;;;15.27;5.30;;;20.00;99.90;;;19.78;58.66;100776.69;5055924;28;20449;-73
2023/07/03 08:41:16;;;;;;;15.07;5.70;;;20.00;99.90;;;20.49;59.00;100893.53;5052083;28;20102;-78
2023/07/03 08:43:51;;;;;;;13.88;5.30;;;20.10;99.90;;;20.48;58.47;100883.72;5056039;28;20102;-78
2023/07/03 08:46:24;;;;;;;18.05;5.75;;;20.10;99.90;;;20.55;57.91;100894.16;5055964;28;20448;-80
2023/07/03 08:49:00;;;;;;;21.35;5.90;;;20.10;99.90;;;20.63;58.49;100891.97;5054681;28;20472;-82
2023/07/03 08:51:33;;;;;;;19.17;5.57;;;20.20;99.90;;;20.63;59.24;100900.03;5051989;28;20057;-85
2023/07/03 08:54:09;;;;;;;17.48;5.07;;;20.20;99.90;;;20.55;59.93;100888.78;5054600;28;20498;-74
2023/07/03 08:56:38;;;;;;;20.98;5.68;;;20.10;99.90;;;20.60;60.04;100897.50;5055458;28;20080;-76
2023/07/03 08:59:07;;;;;;;18.65;5.40;;;20.10;99.90;;;20.76;60.17;100896.78;5055658;28;20125;-77
2023/07/03 09:01:47;;;;;;;19.45;6.30;;;20.30;99.90;;;20.73;59.97;100899.63;5055384;28;20460;-77
2023/07/03 09:04:42;;;;;;;19.15;5.72;;;20.20;99.90;;;20.75;59.61;100901.28;5053356;28;20045;-78
2023/07/03 09:07:17;;;;;;;16.75;5.68;;;20.30;99.90;;;20.84;59.89;100902.69;5053149;28;20041;-77
2023/07/03 09:09:53;;;;;;;18.13;6.07;;;20.40;99.90;;;20.74;59.90;100907.63;5055621;28;20053;-75
2023/07/03 09:12:27;;;;;;;16.38;5.03;;;20.30;99.90;;;20.60;58.95;100902.00;5051742;28;20163;-76
2023/07/03 09:15:00;;;;;;;19.45;6.03;;;20.20;99.90;;;20.57;59.74;100912.88;5055142;28;20056;-77
2023/07/03 09:17:33;;;;;;;23.90;6.18;;;20.10;99.90;;;20.62;60.50;100908.16;5055701;28;20041;-81
2023/07/03 09:20:05;;;;;;;18.67;6.07;;;20.10;99.90;;;20.59;61.13;100901.13;5055003;28;20075;-76
2023/07/03 09:22:42;;;;;;;15.80;5.30;;;20.10;99.90;;;20.73;61.05;100905.00;5051493;28;20045;-74
2023/07/03 09:25:20;;;;;;;19.65;7.07;;;20.20;99.90;;;20.81;61.13;100894.78;5054892;28;20044;-79
2023/07/03 09:27:54;;;;;;;18.85;6.55;;;20.30;99.90;;;21.03;61.04;100915.25;5055254;28;20434;-79
2023/07/03 09:30:23;;;;;;;21.92;6.35;;;20.50;99.90;;;21.16;60.35;100896.72;5051741;28;20075;-76
2023/07/03 09:32:51;;;;;;;20.67;5.90;;;20.70;99.90;;;21.19;58.84;100913.59;5053969;28;20053;-78
2023/07/03 09:35:22;;;;;;;13.32;5.10;;;20.70;99.90;;;21.27;58.11;100907.84;5054924;28;20049;-85
2023/07/03 09:37:52;;;;;;;;;;;20.80;99.90;;;21.24;57.98;100914.25;5055685;28;20049;-77
2023/07/03 09:40:25;;;;;;;14.20;5.72;;;20.80;99.90;;;21.30;57.86;100913.97;5054715;28;20016;-79
2023/07/03 09:42:55;;;;;;;22.02;6.55;;;20.90;99.90;;;21.23;58.63;100920.59;5050905;28;20048;-79
2023/07/03 09:45:30;;;;;;;23.55;5.95;;;20.80;99.90;;;21.25;58.62;100915.13;5051010;28;20127;-80
2023/07/03 09:48:02;;;;;;;18.20;5.47;;;20.80;99.90;;;21.11;57.67;100898.75;5054860;28;20110;-82
2023/07/03 09:50:36;;;;;;;15.65;5.35;;;20.80;99.90;;;21.27;57.63;100908.69;5054667;28;20049;-87
2023/07/03 09:53:06;;;;;;;13.88;5.28;;;20.80;99.90;;;21.29;56.31;100912.19;5054914;28;20049;-76
2023/07/03 09:55:38;;;;;;;18.13;5.47;;;20.90;99.90;;;21.19;55.86;100924.38;5051134;28;20107;-80
2023/07/03 09:58:16;;;;;;;16.27;5.03;;;20.80;99.90;;;21.24;56.47;100919.63;5054909;28;20107;-82
2023/07/03 10:00:48;;;;;;;15.23;4.93;;;20.80;99.90;;;21.26;56.58;100930.31;5054295;28;20451;-76
2023/07/03 10:03:24;;;;;;;20.52;6.55;;;20.80;99.90;;;21.29;57.19;100925.66;5054475;28;20476;-84
2023/07/03 10:05:56;;;;;;;16.05;5.25;;;20.90;99.90;;;21.12;57.45;100924.69;5052314;28;20099;-78
2023/07/03 10:08:28;;;;;;;18.98;5.88;;;20.70;99.90;;;20.91;58.12;100902.34;5053753;28;20076;-76
2023/07/03 10:11:03;;;;;;;16.77;6.13;;;20.60;99.90;;;21.12;59.05;100930.06;5054641;28;20128;-78
2023/07/03 10:13:42;;;;;;;19.08;5.65;;;20.60;99.90;;;21.03;60.22;100938.59;5049694;28;20536;-72
2023/07/03 10:16:12;;;;;;;21.27;6.10;;;20.50;99.90;;;20.85;60.69;100947.47;5054273;28;20049;-71
2023/07/03 10:18:46;;;;;;;15.57;5.93;;;20.40;99.90;;;20.82;61.77;100929.66;5052978;28;20053;-73